sensor_id;sensor_type;location;lat;lon;timestamp;P1;durP1;ratioP1;P2;durP2;ratioP2
5923;SDS011;2987;50.884;14.818;2022-12-26T00:01:54;19.73;;;9.80;;
5923;SDS011;2987;50.884;14.818;2022-12-26T00:04:21;15.73;;;9.00;;
5923;SDS011;2987;50.884;14.818;2022-12-26T00:06:48;14.00;;;8.63;;
5923;SDS011;2987;50.884;14.818;2022-12-26T00:09:14;19.77;;;8.53;;
5923;SDS011;2987;50.884;14.818;2022-12-26T00:11:42;17.80;;;10.13;;
5923;SDS011;2987;50.884;14.818;2022-12-26T00:14:09;16.93;;;10.03;;
5923;SDS011;2987;50.884;14.818;2022-12-26T00:16:38;16.03;;;9.83;;
5923;SDS011;2987;50.884;14.818;2022-12-26T00:19:06;12.70;;;9.63;;
5923;SDS011;2987;50.884;14.818;2022-12-26T00:21:32;17.03;;;9.90;;
5923;SDS011;2987;50.884;14.818;2022-12-26T00:23:59;16.43;;;9.40;;
5923;SDS011;2987;50.884;14.818;2022-12-26T00:26:26;13.23;;;9.63;;
5923;SDS011;2987;50.884;14.818;2022-12-26T00:28:55;17.27;;;10.13;;
5923;SDS011;2987;50.884;14.818;2022-12-26T00:31:24;15.30;;;9.80;;
5923;SDS011;2987;50.884;14.818;2022-12-26T00:33:53;19.93;;;10.37;;
5923;SDS011;2987;50.884;14.818;2022-12-26T00:36:21;15.97;;;10.00;;
5923;SDS011;2987;50.884;14.818;2022-12-26T00:38:50;14.90;;;10.43;;
5923;SDS011;2987;50.884;14.818;2022-12-26T00:41:17;19.43;;;11.07;;
5923;SDS011;2987;50.884;14.818;2022-12-26T00:43:45;18.33;;;10.63;;
5923;SDS011;2987;50.884;14.818;2022-12-26T00:46:12;18.63;;;11.07;;
5923;SDS011;2987;50.884;14.818;2022-12-26T00:48:40;21.07;;;11.70;;
5923;SDS011;2987;50.884;14.818;2022-12-26T00:51:06;21.10;;;12.03;;
5923;SDS011;2987;50.884;14.818;2022-12-26T00:53:33;19.70;;;11.87;;
5923;SDS011;2987;50.884;14.818;2022-12-26T00:55:59;17.77;;;11.50;;
5923;SDS011;2987;50.884;14.818;2022-12-26T00:58:26;18.43;;;12.17;;
5923;SDS011;2987;50.884;14.818;2022-12-26T01:00:53;18.40;;;12.20;;
5923;SDS011;2987;50.884;14.818;2022-12-26T01:03:20;23.77;;;12.07;;
5923;SDS011;2987;50.884;14.818;2022-12-26T01:05:47;15.30;;;11.83;;
5923;SDS011;2987;50.884;14.818;2022-12-26T01:08:15;15.80;;;11.37;;
5923;SDS011;2987;50.884;14.818;2022-12-26T01:10:42;20.43;;;12.07;;
5923;SDS011;2987;50.884;14.818;2022-12-26T01:13:09;23.43;;;12.37;;
5923;SDS011;2987;50.884;14.818;2022-12-26T01:15:35;18.53;;;11.90;;
5923;SDS011;2987;50.884;14.818;2022-12-26T01:18:02;15.20;;;11.27;;
5923;SDS011;2987;50.884;14.818;2022-12-26T01:20:31;20.63;;;11.43;;
5923;SDS011;2987;50.884;14.818;2022-12-26T01:22:57;18.73;;;11.07;;
5923;SDS011;2987;50.884;14.818;2022-12-26T01:25:26;18.27;;;12.07;;
5923;SDS011;2987;50.884;14.818;2022-12-26T01:27:56;17.50;;;11.43;;
5923;SDS011;2987;50.884;14.818;2022-12-26T01:30:22;18.40;;;11.40;;
5923;SDS011;2987;50.884;14.818;2022-12-26T01:32:48;20.13;;;12.90;;
5923;SDS011;2987;50.884;14.818;2022-12-26T01:35:15;19.03;;;11.63;;
5923;SDS011;2987;50.884;14.818;2022-12-26T01:37:41;19.83;;;12.63;;
5923;SDS011;2987;50.884;14.818;2022-12-26T01:40:07;20.93;;;12.30;;
5923;SDS011;2987;50.884;14.818;2022-12-26T01:42:37;19.33;;;11.93;;
5923;SDS011;2987;50.884;14.818;2022-12-26T01:45:24;20.03;;;12.50;;
5923;SDS011;2987;50.884;14.818;2022-12-26T01:48:03;18.93;;;11.93;;
5923;SDS011;2987;50.884;14.818;2022-12-26T01:50:51;20.23;;;11.83;;
5923;SDS011;2987;50.884;14.818;2022-12-26T01:53:26;19.37;;;11.63;;
5923;SDS011;2987;50.884;14.818;2022-12-26T01:56:00;18.03;;;11.73;;
5923;SDS011;2987;50.884;14.818;2022-12-26T01:58:32;20.13;;;12.97;;
5923;SDS011;2987;50.884;14.818;2022-12-26T02:01:04;18.40;;;12.53;;
5923;SDS011;2987;50.884;14.818;2022-12-26T02:03:33;19.27;;;12.23;;
5923;SDS011;2987;50.884;14.818;2022-12-26T02:06:23;17.03;;;11.93;;
5923;SDS011;2987;50.884;14.818;2022-12-26T02:08:49;20.20;;;11.73;;
5923;SDS011;2987;50.884;14.818;2022-12-26T02:11:17;17.67;;;11.90;;
5923;SDS011;2987;50.884;14.818;2022-12-26T02:14:05;18.37;;;12.73;;
5923;SDS011;2987;50.884;14.818;2022-12-26T02:16:32;17.13;;;11.60;;
5923;SDS011;2987;50.884;14.818;2022-12-26T02:18:59;18.87;;;11.90;;
5923;SDS011;2987;50.884;14.818;2022-12-26T02:24:31;17.90;;;12.60;;
5923;SDS011;2987;50.884;14.818;2022-12-26T02:27:19;17.70;;;12.10;;
5923;SDS011;2987;50.884;14.818;2022-12-26T02:35:23;20.67;;;13.00;;
5923;SDS011;2987;50.884;14.818;2022-12-26T02:43:56;21.13;;;12.43;;
5923;SDS011;2987;50.884;14.818;2022-12-26T02:53:11;18.47;;;12.33;;
5923;SDS011;2987;50.884;14.818;2022-12-26T03:04:35;18.40;;;12.60;;
5923;SDS011;2987;50.884;14.818;2022-12-26T03:07:24;18.23;;;12.47;;
5923;SDS011;2987;50.884;14.818;2022-12-26T03:10:16;23.40;;;13.13;;
5923;SDS011;2987;50.884;14.818;2022-12-26T03:13:06;18.60;;;12.90;;
5923;SDS011;2987;50.884;14.818;2022-12-26T03:15:42;18.13;;;12.53;;
5923;SDS011;2987;50.884;14.818;2022-12-26T03:18:33;20.77;;;12.33;;
5923;SDS011;2987;50.884;14.818;2022-12-26T03:21:02;18.13;;;12.63;;
5923;SDS011;2987;50.884;14.818;2022-12-26T03:23:30;18.30;;;12.87;;
5923;SDS011;2987;50.884;14.818;2022-12-26T03:25:58;17.27;;;11.57;;
5923;SDS011;2987;50.884;14.818;2022-12-26T03:28:48;21.43;;;11.90;;
5923;SDS011;2987;50.884;14.818;2022-12-26T03:31:15;14.80;;;11.53;;
5923;SDS011;2987;50.884;14.818;2022-12-26T03:33:42;19.27;;;12.27;;
5923;SDS011;2987;50.884;14.818;2022-12-26T03:39:28;19.70;;;11.93;;
5923;SDS011;2987;50.884;14.818;2022-12-26T03:57:49;20.60;;;12.67;;
5923;SDS011;2987;50.884;14.818;2022-12-26T04:00:43;18.40;;;12.60;;
5923;SDS011;2987;50.884;14.818;2022-12-26T04:03:30;20.47;;;12.70;;
5923;SDS011;2987;50.884;14.818;2022-12-26T04:06:19;18.13;;;11.90;;
5923;SDS011;2987;50.884;14.818;2022-12-26T04:09:11;19.60;;;12.97;;
5923;SDS011;2987;50.884;14.818;2022-12-26T04:12:00;18.80;;;12.67;;
5923;SDS011;2987;50.884;14.818;2022-12-26T04:14:54;17.43;;;12.70;;
5923;SDS011;2987;50.884;14.818;2022-12-26T04:17:53;20.30;;;12.87;;
5923;SDS011;2987;50.884;14.818;2022-12-26T04:20:59;17.87;;;12.20;;
5923;SDS011;2987;50.884;14.818;2022-12-26T04:23:39;18.40;;;12.20;;
5923;SDS011;2987;50.884;14.818;2022-12-26T04:26:33;22.10;;;14.13;;
5923;SDS011;2987;50.884;14.818;2022-12-26T04:29:21;19.97;;;12.87;;
5923;SDS011;2987;50.884;14.818;2022-12-26T04:38:33;18.30;;;12.23;;
5923;SDS011;2987;50.884;14.818;2022-12-26T04:44:09;19.40;;;13.73;;
5923;SDS011;2987;50.884;14.818;2022-12-26T04:46:39;21.30;;;13.63;;
5923;SDS011;2987;50.884;14.818;2022-12-26T04:49:08;18.57;;;13.17;;
5923;SDS011;2987;50.884;14.818;2022-12-26T04:51:55;21.20;;;13.83;;
5923;SDS011;2987;50.884;14.818;2022-12-26T04:54:23;21.90;;;13.93;;
5923;SDS011;2987;50.884;14.818;2022-12-26T04:56:49;20.17;;;13.53;;
5923;SDS011;2987;50.884;14.818;2022-12-26T04:59:15;19.17;;;13.07;;
5923;SDS011;2987;50.884;14.818;2022-12-26T05:01:42;23.10;;;14.43;;
5923;SDS011;2987;50.884;14.818;2022-12-26T05:04:28;20.00;;;12.70;;
5923;SDS011;2987;50.884;14.818;2022-12-26T05:07:15;18.67;;;13.57;;
5923;SDS011;2987;50.884;14.818;2022-12-26T05:10:02;21.27;;;13.13;;
5923;SDS011;2987;50.884;14.818;2022-12-26T05:12:31;20.17;;;13.57;;
5923;SDS011;2987;50.884;14.818;2022-12-26T05:14:57;20.90;;;13.73;;
5923;SDS011;2987;50.884;14.818;2022-12-26T05:17:23;18.33;;;12.50;;
5923;SDS011;2987;50.884;14.818;2022-12-26T05:20:10;20.83;;;12.83;;
5923;SDS011;2987;50.884;14.818;2022-12-26T05:22:55;20.60;;;12.60;;
5923;SDS011;2987;50.884;14.818;2022-12-26T05:25:42;19.43;;;13.33;;
5923;SDS011;2987;50.884;14.818;2022-12-26T05:28:29;17.43;;;13.10;;
5923;SDS011;2987;50.884;14.818;2022-12-26T05:31:07;22.00;;;13.60;;
5923;SDS011;2987;50.884;14.818;2022-12-26T05:33:35;18.90;;;13.37;;
5923;SDS011;2987;50.884;14.818;2022-12-26T05:36:20;18.60;;;12.80;;
5923;SDS011;2987;50.884;14.818;2022-12-26T05:38:48;18.97;;;13.13;;
5923;SDS011;2987;50.884;14.818;2022-12-26T05:41:14;22.30;;;13.13;;
5923;SDS011;2987;50.884;14.818;2022-12-26T05:43:41;17.77;;;13.27;;
5923;SDS011;2987;50.884;14.818;2022-12-26T05:46:07;21.67;;;13.97;;
5923;SDS011;2987;50.884;14.818;2022-12-26T05:48:33;18.50;;;13.40;;
5923;SDS011;2987;50.884;14.818;2022-12-26T05:51:00;18.73;;;12.27;;
5923;SDS011;2987;50.884;14.818;2022-12-26T05:53:27;16.80;;;13.27;;
5923;SDS011;2987;50.884;14.818;2022-12-26T05:55:54;16.77;;;12.77;;
5923;SDS011;2987;50.884;14.818;2022-12-26T05:58:20;18.43;;;12.93;;
5923;SDS011;2987;50.884;14.818;2022-12-26T06:00:46;16.90;;;11.93;;
5923;SDS011;2987;50.884;14.818;2022-12-26T06:03:12;17.17;;;12.63;;
5923;SDS011;2987;50.884;14.818;2022-12-26T06:05:38;18.03;;;12.37;;
5923;SDS011;2987;50.884;14.818;2022-12-26T06:08:05;18.13;;;12.47;;
5923;SDS011;2987;50.884;14.818;2022-12-26T06:10:31;19.90;;;12.97;;
5923;SDS011;2987;50.884;14.818;2022-12-26T06:12:58;16.33;;;12.53;;
5923;SDS011;2987;50.884;14.818;2022-12-26T06:15:26;17.00;;;11.73;;
5923;SDS011;2987;50.884;14.818;2022-12-26T06:17:53;17.13;;;11.90;;
5923;SDS011;2987;50.884;14.818;2022-12-26T06:20:20;18.07;;;12.53;;
5923;SDS011;2987;50.884;14.818;2022-12-26T06:22:47;18.27;;;12.97;;
5923;SDS011;2987;50.884;14.818;2022-12-26T06:25:13;19.80;;;13.53;;
5923;SDS011;2987;50.884;14.818;2022-12-26T06:27:41;16.60;;;11.90;;
5923;SDS011;2987;50.884;14.818;2022-12-26T06:30:11;19.40;;;12.07;;
5923;SDS011;2987;50.884;14.818;2022-12-26T06:32:37;19.47;;;12.10;;
5923;SDS011;2987;50.884;14.818;2022-12-26T06:35:04;19.57;;;12.00;;
5923;SDS011;2987;50.884;14.818;2022-12-26T06:37:31;17.70;;;12.13;;
5923;SDS011;2987;50.884;14.818;2022-12-26T06:39:58;17.20;;;11.93;;
5923;SDS011;2987;50.884;14.818;2022-12-26T06:42:24;17.47;;;12.40;;
5923;SDS011;2987;50.884;14.818;2022-12-26T06:44:50;17.77;;;11.70;;
5923;SDS011;2987;50.884;14.818;2022-12-26T06:47:16;16.97;;;12.03;;
5923;SDS011;2987;50.884;14.818;2022-12-26T06:49:42;17.97;;;11.53;;
5923;SDS011;2987;50.884;14.818;2022-12-26T06:52:08;14.83;;;11.20;;
5923;SDS011;2987;50.884;14.818;2022-12-26T06:54:36;18.63;;;12.10;;
5923;SDS011;2987;50.884;14.818;2022-12-26T06:57:02;16.23;;;11.33;;
5923;SDS011;2987;50.884;14.818;2022-12-26T06:59:28;20.17;;;11.53;;
5923;SDS011;2987;50.884;14.818;2022-12-26T07:01:54;17.50;;;11.30;;
5923;SDS011;2987;50.884;14.818;2022-12-26T07:04:20;19.50;;;12.00;;
5923;SDS011;2987;50.884;14.818;2022-12-26T07:06:46;15.53;;;10.53;;
5923;SDS011;2987;50.884;14.818;2022-12-26T07:09:14;18.10;;;11.13;;
5923;SDS011;2987;50.884;14.818;2022-12-26T07:11:42;18.37;;;11.17;;
5923;SDS011;2987;50.884;14.818;2022-12-26T07:14:10;15.03;;;11.13;;
5923;SDS011;2987;50.884;14.818;2022-12-26T07:16:37;15.83;;;10.30;;
5923;SDS011;2987;50.884;14.818;2022-12-26T07:19:05;14.97;;;10.57;;
5923;SDS011;2987;50.884;14.818;2022-12-26T07:21:31;13.33;;;9.90;;
5923;SDS011;2987;50.884;14.818;2022-12-26T07:23:58;14.17;;;11.17;;
5923;SDS011;2987;50.884;14.818;2022-12-26T07:26:24;15.97;;;10.60;;
5923;SDS011;2987;50.884;14.818;2022-12-26T07:28:52;14.83;;;11.03;;
5923;SDS011;2987;50.884;14.818;2022-12-26T07:31:19;16.07;;;10.23;;
5923;SDS011;2987;50.884;14.818;2022-12-26T07:33:47;15.43;;;11.23;;
5923;SDS011;2987;50.884;14.818;2022-12-26T07:36:15;14.60;;;10.90;;
5923;SDS011;2987;50.884;14.818;2022-12-26T07:38:42;15.23;;;10.57;;
5923;SDS011;2987;50.884;14.818;2022-12-26T07:41:08;15.60;;;10.10;;
5923;SDS011;2987;50.884;14.818;2022-12-26T07:43:54;17.57;;;11.60;;
5923;SDS011;2987;50.884;14.818;2022-12-26T07:46:20;16.57;;;10.47;;
5923;SDS011;2987;50.884;14.818;2022-12-26T07:48:46;15.57;;;10.50;;
5923;SDS011;2987;50.884;14.818;2022-12-26T07:51:12;14.43;;;10.67;;
5923;SDS011;2987;50.884;14.818;2022-12-26T07:53:38;16.70;;;10.90;;
5923;SDS011;2987;50.884;14.818;2022-12-26T07:56:05;16.10;;;11.27;;
5923;SDS011;2987;50.884;14.818;2022-12-26T07:58:31;16.40;;;10.63;;
5923;SDS011;2987;50.884;14.818;2022-12-26T08:00:59;17.77;;;10.57;;
5923;SDS011;2987;50.884;14.818;2022-12-26T08:03:44;19.23;;;11.00;;
5923;SDS011;2987;50.884;14.818;2022-12-26T08:06:11;14.87;;;10.67;;
5923;SDS011;2987;50.884;14.818;2022-12-26T08:08:37;16.83;;;10.67;;
5923;SDS011;2987;50.884;14.818;2022-12-26T08:11:04;16.20;;;11.47;;
5923;SDS011;2987;50.884;14.818;2022-12-26T08:13:32;14.23;;;10.13;;
5923;SDS011;2987;50.884;14.818;2022-12-26T08:16:03;15.00;;;10.17;;
5923;SDS011;2987;50.884;14.818;2022-12-26T08:18:31;16.87;;;9.67;;
5923;SDS011;2987;50.884;14.818;2022-12-26T08:20:58;14.90;;;10.50;;
5923;SDS011;2987;50.884;14.818;2022-12-26T08:23:25;15.43;;;10.53;;
5923;SDS011;2987;50.884;14.818;2022-12-26T08:25:51;14.20;;;9.87;;
5923;SDS011;2987;50.884;14.818;2022-12-26T08:28:17;13.10;;;9.53;;
5923;SDS011;2987;50.884;14.818;2022-12-26T08:30:43;11.87;;;9.43;;
5923;SDS011;2987;50.884;14.818;2022-12-26T08:33:11;13.93;;;9.87;;
5923;SDS011;2987;50.884;14.818;2022-12-26T08:35:38;14.93;;;9.67;;
5923;SDS011;2987;50.884;14.818;2022-12-26T08:38:04;14.00;;;9.80;;
5923;SDS011;2987;50.884;14.818;2022-12-26T08:40:31;12.60;;;9.50;;
5923;SDS011;2987;50.884;14.818;2022-12-26T08:42:58;14.93;;;10.00;;
5923;SDS011;2987;50.884;14.818;2022-12-26T08:45:24;12.60;;;9.27;;
5923;SDS011;2987;50.884;14.818;2022-12-26T08:47:50;12.53;;;9.33;;
5923;SDS011;2987;50.884;14.818;2022-12-26T08:50:18;14.00;;;8.70;;
5923;SDS011;2987;50.884;14.818;2022-12-26T08:52:44;13.07;;;8.77;;
5923;SDS011;2987;50.884;14.818;2022-12-26T08:55:10;12.53;;;8.73;;
5923;SDS011;2987;50.884;14.818;2022-12-26T08:57:38;14.97;;;9.13;;
5923;SDS011;2987;50.884;14.818;2022-12-26T09:00:04;12.83;;;8.47;;
5923;SDS011;2987;50.884;14.818;2022-12-26T09:02:31;12.63;;;8.03;;
5923;SDS011;2987;50.884;14.818;2022-12-26T09:04:57;11.40;;;7.43;;
5923;SDS011;2987;50.884;14.818;2022-12-26T09:07:23;10.60;;;7.13;;
5923;SDS011;2987;50.884;14.818;2022-12-26T09:09:50;11.63;;;7.80;;
5923;SDS011;2987;50.884;14.818;2022-12-26T09:12:16;12.20;;;9.10;;
5923;SDS011;2987;50.884;14.818;2022-12-26T09:14:42;10.60;;;7.87;;
5923;SDS011;2987;50.884;14.818;2022-12-26T09:17:09;15.23;;;8.40;;
5923;SDS011;2987;50.884;14.818;2022-12-26T09:19:36;11.17;;;7.17;;
5923;SDS011;2987;50.884;14.818;2022-12-26T09:22:02;9.30;;;7.20;;
5923;SDS011;2987;50.884;14.818;2022-12-26T09:24:48;14.13;;;7.77;;
5923;SDS011;2987;50.884;14.818;2022-12-26T09:27:14;9.70;;;7.93;;
5923;SDS011;2987;50.884;14.818;2022-12-26T09:29:40;9.03;;;7.60;;
5923;SDS011;2987;50.884;14.818;2022-12-26T09:32:06;10.67;;;7.20;;
5923;SDS011;2987;50.884;14.818;2022-12-26T09:34:32;11.00;;;7.63;;
5923;SDS011;2987;50.884;14.818;2022-12-26T09:36:58;10.53;;;7.63;;
5923;SDS011;2987;50.884;14.818;2022-12-26T09:39:25;29.97;;;22.67;;
5923;SDS011;2987;50.884;14.818;2022-12-26T09:41:55;11.17;;;7.43;;
5923;SDS011;2987;50.884;14.818;2022-12-26T09:47:30;9.90;;;6.30;;
5923;SDS011;2987;50.884;14.818;2022-12-26T10:00:52;9.63;;;6.67;;
5923;SDS011;2987;50.884;14.818;2022-12-26T10:03:43;8.93;;;6.93;;
5923;SDS011;2987;50.884;14.818;2022-12-26T10:08:53;12.77;;;7.33;;
5923;SDS011;2987;50.884;14.818;2022-12-26T10:11:33;10.23;;;6.60;;
5923;SDS011;2987;50.884;14.818;2022-12-26T10:14:34;10.97;;;6.40;;
5923;SDS011;2987;50.884;14.818;2022-12-26T10:28:24;9.00;;;6.77;;
5923;SDS011;2987;50.884;14.818;2022-12-26T10:31:15;10.23;;;6.97;;
5923;SDS011;2987;50.884;14.818;2022-12-26T10:33:47;13.03;;;7.60;;
5923;SDS011;2987;50.884;14.818;2022-12-26T10:36:25;10.50;;;7.03;;
5923;SDS011;2987;50.884;14.818;2022-12-26T10:39:00;10.73;;;7.23;;
5923;SDS011;2987;50.884;14.818;2022-12-26T10:44:16;11.30;;;7.33;;
5923;SDS011;2987;50.884;14.818;2022-12-26T10:46:47;16.53;;;7.90;;
5923;SDS011;2987;50.884;14.818;2022-12-26T10:54:16;8.40;;;6.70;;
5923;SDS011;2987;50.884;14.818;2022-12-26T10:56:45;10.50;;;6.03;;
5923;SDS011;2987;50.884;14.818;2022-12-26T10:59:18;13.57;;;7.10;;
5923;SDS011;2987;50.884;14.818;2022-12-26T11:02:10;14.97;;;7.27;;
5923;SDS011;2987;50.884;14.818;2022-12-26T11:04:55;9.40;;;6.50;;
5923;SDS011;2987;50.884;14.818;2022-12-26T11:07:26;11.33;;;6.57;;
5923;SDS011;2987;50.884;14.818;2022-12-26T11:09:57;10.07;;;5.90;;
5923;SDS011;2987;50.884;14.818;2022-12-26T11:12:27;9.10;;;6.07;;
5923;SDS011;2987;50.884;14.818;2022-12-26T11:14:59;11.73;;;6.57;;
5923;SDS011;2987;50.884;14.818;2022-12-26T11:17:31;12.47;;;7.20;;
5923;SDS011;2987;50.884;14.818;2022-12-26T11:22:49;9.20;;;6.13;;
5923;SDS011;2987;50.884;14.818;2022-12-26T11:25:18;8.73;;;5.87;;
5923;SDS011;2987;50.884;14.818;2022-12-26T11:27:53;9.17;;;6.70;;
5923;SDS011;2987;50.884;14.818;2022-12-26T11:30:24;8.00;;;6.17;;
5923;SDS011;2987;50.884;14.818;2022-12-26T11:35:50;13.20;;;6.63;;
5923;SDS011;2987;50.884;14.818;2022-12-26T11:38:19;7.37;;;6.07;;
5923;SDS011;2987;50.884;14.818;2022-12-26T11:46:20;10.30;;;6.13;;
5923;SDS011;2987;50.884;14.818;2022-12-26T11:48:55;10.80;;;5.67;;
5923;SDS011;2987;50.884;14.818;2022-12-26T11:51:39;9.50;;;6.03;;
5923;SDS011;2987;50.884;14.818;2022-12-26T11:57:04;8.80;;;6.17;;
5923;SDS011;2987;50.884;14.818;2022-12-26T11:59:37;9.20;;;6.50;;
5923;SDS011;2987;50.884;14.818;2022-12-26T12:10:16;10.60;;;6.60;;
5923;SDS011;2987;50.884;14.818;2022-12-26T12:23:47;8.63;;;6.53;;
5923;SDS011;2987;50.884;14.818;2022-12-26T12:43:10;9.87;;;6.80;;
5923;SDS011;2987;50.884;14.818;2022-12-26T12:45:51;10.70;;;7.13;;
5923;SDS011;2987;50.884;14.818;2022-12-26T12:51:15;9.30;;;6.93;;
5923;SDS011;2987;50.884;14.818;2022-12-26T12:54:14;12.10;;;7.53;;
5923;SDS011;2987;50.884;14.818;2022-12-26T13:07:09;12.03;;;8.03;;
5923;SDS011;2987;50.884;14.818;2022-12-26T13:14:59;9.50;;;7.33;;
5923;SDS011;2987;50.884;14.818;2022-12-26T13:17:32;15.13;;;7.83;;
5923;SDS011;2987;50.884;14.818;2022-12-26T13:22:32;12.40;;;7.70;;
5923;SDS011;2987;50.884;14.818;2022-12-26T13:25:23;13.53;;;8.17;;
5923;SDS011;2987;50.884;14.818;2022-12-26T13:27:52;12.03;;;8.07;;
5923;SDS011;2987;50.884;14.818;2022-12-26T13:30:21;12.93;;;7.87;;
5923;SDS011;2987;50.884;14.818;2022-12-26T13:32:47;11.93;;;7.93;;
5923;SDS011;2987;50.884;14.818;2022-12-26T13:40:52;10.47;;;7.77;;
5923;SDS011;2987;50.884;14.818;2022-12-26T13:43:58;13.37;;;8.43;;
5923;SDS011;2987;50.884;14.818;2022-12-26T13:46:53;12.13;;;8.43;;
5923;SDS011;2987;50.884;14.818;2022-12-26T13:49:37;15.50;;;8.30;;
5923;SDS011;2987;50.884;14.818;2022-12-26T13:52:22;12.00;;;7.67;;
5923;SDS011;2987;50.884;14.818;2022-12-26T13:58:13;11.40;;;7.90;;
5923;SDS011;2987;50.884;14.818;2022-12-26T14:01:04;11.03;;;6.70;;
5923;SDS011;2987;50.884;14.818;2022-12-26T14:03:51;12.00;;;7.73;;
5923;SDS011;2987;50.884;14.818;2022-12-26T14:12:12;12.43;;;7.80;;
5923;SDS011;2987;50.884;14.818;2022-12-26T14:25:55;12.70;;;7.37;;
5923;SDS011;2987;50.884;14.818;2022-12-26T14:31:34;17.57;;;7.97;;
5923;SDS011;2987;50.884;14.818;2022-12-26T14:34:15;11.50;;;7.60;;
5923;SDS011;2987;50.884;14.818;2022-12-26T14:39:46;9.47;;;7.20;;
5923;SDS011;2987;50.884;14.818;2022-12-26T14:42:29;14.30;;;7.77;;
5923;SDS011;2987;50.884;14.818;2022-12-26T14:47:54;12.80;;;7.27;;
5923;SDS011;2987;50.884;14.818;2022-12-26T14:55:54;4.67;;;4.17;;
5923;SDS011;2987;50.884;14.818;2022-12-26T15:02:09;4.13;;;3.40;;
5923;SDS011;2987;50.884;14.818;2022-12-26T15:05:13;4.93;;;3.70;;
5923;SDS011;2987;50.884;14.818;2022-12-26T15:07:57;6.17;;;3.83;;
5923;SDS011;2987;50.884;14.818;2022-12-26T15:19:32;7.40;;;5.63;;
5923;SDS011;2987;50.884;14.818;2022-12-26T15:41:25;12.10;;;8.00;;
5923;SDS011;2987;50.884;14.818;2022-12-26T16:07:57;17.97;;;8.80;;
5923;SDS011;2987;50.884;14.818;2022-12-26T16:10:45;12.90;;;8.20;;
5923;SDS011;2987;50.884;14.818;2022-12-26T16:13:15;12.80;;;9.10;;
5923;SDS011;2987;50.884;14.818;2022-12-26T16:15:49;13.97;;;8.80;;
5923;SDS011;2987;50.884;14.818;2022-12-26T16:18:21;12.00;;;8.43;;
5923;SDS011;2987;50.884;14.818;2022-12-26T16:20:52;13.70;;;9.03;;
5923;SDS011;2987;50.884;14.818;2022-12-26T16:23:41;11.03;;;7.90;;
5923;SDS011;2987;50.884;14.818;2022-12-26T16:26:14;13.93;;;8.93;;
5923;SDS011;2987;50.884;14.818;2022-12-26T16:28:46;12.40;;;7.90;;
5923;SDS011;2987;50.884;14.818;2022-12-26T16:31:22;15.80;;;8.90;;
5923;SDS011;2987;50.884;14.818;2022-12-26T16:33:51;16.23;;;8.60;;
5923;SDS011;2987;50.884;14.818;2022-12-26T16:36:21;13.93;;;9.67;;
5923;SDS011;2987;50.884;14.818;2022-12-26T16:38:49;18.33;;;10.40;;
5923;SDS011;2987;50.884;14.818;2022-12-26T16:41:24;20.63;;;10.83;;
5923;SDS011;2987;50.884;14.818;2022-12-26T16:43:52;14.83;;;10.60;;
5923;SDS011;2987;50.884;14.818;2022-12-26T16:46:20;16.70;;;10.93;;
5923;SDS011;2987;50.884;14.818;2022-12-26T16:48:58;17.17;;;10.17;;
5923;SDS011;2987;50.884;14.818;2022-12-26T16:51:45;18.83;;;11.47;;
5923;SDS011;2987;50.884;14.818;2022-12-26T16:54:14;14.53;;;10.47;;
5923;SDS011;2987;50.884;14.818;2022-12-26T16:59:45;16.97;;;10.63;;
5923;SDS011;2987;50.884;14.818;2022-12-26T17:02:14;16.30;;;10.20;;
5923;SDS011;2987;50.884;14.818;2022-12-26T17:09:44;18.00;;;10.43;;
5923;SDS011;2987;50.884;14.818;2022-12-26T17:12:21;14.00;;;10.23;;
5923;SDS011;2987;50.884;14.818;2022-12-26T17:14:50;18.00;;;10.37;;
5923;SDS011;2987;50.884;14.818;2022-12-26T17:17:26;15.73;;;10.40;;
5923;SDS011;2987;50.884;14.818;2022-12-26T17:19:56;17.10;;;11.07;;
5923;SDS011;2987;50.884;14.818;2022-12-26T17:22:27;16.23;;;11.13;;
5923;SDS011;2987;50.884;14.818;2022-12-26T17:27:47;14.83;;;11.00;;
5923;SDS011;2987;50.884;14.818;2022-12-26T17:30:36;14.63;;;10.73;;
5923;SDS011;2987;50.884;14.818;2022-12-26T17:33:04;15.93;;;11.30;;
5923;SDS011;2987;50.884;14.818;2022-12-26T17:40:51;15.20;;;10.70;;
5923;SDS011;2987;50.884;14.818;2022-12-26T17:43:21;20.10;;;12.03;;
5923;SDS011;2987;50.884;14.818;2022-12-26T17:45:49;16.93;;;11.73;;
5923;SDS011;2987;50.884;14.818;2022-12-26T17:48:16;17.07;;;11.40;;
5923;SDS011;2987;50.884;14.818;2022-12-26T17:50:43;16.83;;;10.97;;
5923;SDS011;2987;50.884;14.818;2022-12-26T17:53:19;13.57;;;10.53;;
5923;SDS011;2987;50.884;14.818;2022-12-26T17:55:55;14.83;;;10.60;;
5923;SDS011;2987;50.884;14.818;2022-12-26T17:58:23;14.07;;;9.70;;
5923;SDS011;2987;50.884;14.818;2022-12-26T18:00:50;15.10;;;9.80;;
5923;SDS011;2987;50.884;14.818;2022-12-26T18:03:16;15.17;;;9.83;;
5923;SDS011;2987;50.884;14.818;2022-12-26T18:05:43;16.80;;;10.47;;
5923;SDS011;2987;50.884;14.818;2022-12-26T18:10:59;13.97;;;9.50;;
5923;SDS011;2987;50.884;14.818;2022-12-26T18:13:26;13.77;;;9.83;;
5923;SDS011;2987;50.884;14.818;2022-12-26T18:18:21;14.67;;;9.37;;
5923;SDS011;2987;50.884;14.818;2022-12-26T18:20:58;12.37;;;8.83;;
5923;SDS011;2987;50.884;14.818;2022-12-26T18:25:50;13.87;;;9.37;;
5923;SDS011;2987;50.884;14.818;2022-12-26T18:28:19;17.20;;;8.67;;
5923;SDS011;2987;50.884;14.818;2022-12-26T18:30:45;12.57;;;9.23;;
5923;SDS011;2987;50.884;14.818;2022-12-26T18:33:11;11.70;;;8.60;;
5923;SDS011;2987;50.884;14.818;2022-12-26T18:35:38;13.07;;;8.47;;
5923;SDS011;2987;50.884;14.818;2022-12-26T18:38:06;11.40;;;8.63;;
5923;SDS011;2987;50.884;14.818;2022-12-26T18:40:36;10.37;;;7.53;;
5923;SDS011;2987;50.884;14.818;2022-12-26T18:43:05;13.20;;;8.60;;
5923;SDS011;2987;50.884;14.818;2022-12-26T18:45:32;10.70;;;7.83;;
5923;SDS011;2987;50.884;14.818;2022-12-26T18:48:04;11.30;;;8.00;;
5923;SDS011;2987;50.884;14.818;2022-12-26T18:50:31;12.37;;;8.00;;
5923;SDS011;2987;50.884;14.818;2022-12-26T18:53:01;11.97;;;8.27;;
5923;SDS011;2987;50.884;14.818;2022-12-26T18:55:28;10.63;;;7.37;;
5923;SDS011;2987;50.884;14.818;2022-12-26T18:57:54;11.30;;;7.93;;
5923;SDS011;2987;50.884;14.818;2022-12-26T19:00:21;11.50;;;7.63;;
5923;SDS011;2987;50.884;14.818;2022-12-26T19:02:48;13.90;;;7.30;;
5923;SDS011;2987;50.884;14.818;2022-12-26T19:05:17;9.43;;;7.23;;
5923;SDS011;2987;50.884;14.818;2022-12-26T19:07:45;9.37;;;7.27;;
5923;SDS011;2987;50.884;14.818;2022-12-26T19:10:13;9.70;;;7.17;;
5923;SDS011;2987;50.884;14.818;2022-12-26T19:12:42;10.77;;;7.83;;
5923;SDS011;2987;50.884;14.818;2022-12-26T19:15:08;10.27;;;7.43;;
5923;SDS011;2987;50.884;14.818;2022-12-26T19:17:36;12.53;;;7.97;;
5923;SDS011;2987;50.884;14.818;2022-12-26T19:20:04;10.47;;;7.20;;
5923;SDS011;2987;50.884;14.818;2022-12-26T19:22:32;10.23;;;7.47;;
5923;SDS011;2987;50.884;14.818;2022-12-26T19:24:58;10.03;;;7.87;;
5923;SDS011;2987;50.884;14.818;2022-12-26T19:27:25;9.47;;;6.97;;
5923;SDS011;2987;50.884;14.818;2022-12-26T19:29:51;10.67;;;7.07;;
5923;SDS011;2987;50.884;14.818;2022-12-26T19:32:17;10.17;;;7.00;;
5923;SDS011;2987;50.884;14.818;2022-12-26T19:34:43;9.33;;;7.20;;
5923;SDS011;2987;50.884;14.818;2022-12-26T19:37:10;9.33;;;6.73;;
5923;SDS011;2987;50.884;14.818;2022-12-26T19:39:36;9.23;;;6.67;;
5923;SDS011;2987;50.884;14.818;2022-12-26T19:42:03;8.30;;;6.70;;
5923;SDS011;2987;50.884;14.818;2022-12-26T19:44:29;8.43;;;6.40;;
5923;SDS011;2987;50.884;14.818;2022-12-26T19:46:56;9.37;;;6.70;;
5923;SDS011;2987;50.884;14.818;2022-12-26T19:49:22;7.30;;;5.67;;
5923;SDS011;2987;50.884;14.818;2022-12-26T19:51:48;7.57;;;6.00;;
5923;SDS011;2987;50.884;14.818;2022-12-26T19:54:14;10.40;;;6.77;;
5923;SDS011;2987;50.884;14.818;2022-12-26T19:56:40;9.73;;;6.90;;